Time;durP1;ratioP1;P1;durP2;ratioP2;P2;SDS_P1;SDS_P2;PMS_P1;PMS_P2;Temp;Humidity;BMP_temperature;BMP_pressure;BME280_temperature;BME280_humidity;BME280_pressure;Samples;Min_cycle;Max_cycle;Signal;HPM_P1;HPM_P2
2023/02/19 00:01:30;;;;;;;5.53;5.13;;;;;;;9.34;100.00;101312.50;6103866;23;20060;-72
2023/02/19 00:04:02;;;;;;;5.10;4.80;;;;;;;8.39;100.00;101164.94;6082765;23;20030;-72
2023/02/19 00:06:32;;;;;;;6.50;5.93;;;;;;;9.57;100.00;101339.59;6078300;23;20052;-74
2023/02/19 00:08:59;;;;;;;6.05;5.55;;;;;;;9.65;100.00;101355.03;6081465;23;20038;-73
2023/02/19 00:11:28;;;;;;;6.00;5.47;;;;;;;9.68;100.00;101360.13;6055784;23;20025;-74
2023/02/19 00:13:57;;;;;;;5.35;5.00;;;;;;;9.63;100.00;101364.72;6107018;23;21347;-74
2023/02/19 00:16:37;;;;;;;5.30;5.00;;;;;;;9.29;100.00;101309.16;6080474;23;20033;-74
2023/02/19 00:19:07;;;;;;;5.70;5.35;;;;;;;9.65;100.00;101363.72;6081063;23;20041;-72
2023/02/19 00:21:33;;;;;;;5.40;5.07;;;;;;;8.77;100.00;101203.75;6078735;23;20022;-73
2023/02/19 00:24:03;;;;;;;5.40;4.90;;;;;;;9.63;100.00;101355.06;6093684;23;20694;-72
2023/02/19 00:26:30;;;;;;;12.13;5.10;;;;;;;9.25;100.00;101285.78;6075536;23;20037;-72
2023/02/19 00:28:57;;;;;;;5.22;4.90;;;;;;;9.49;100.00;101341.63;6053778;23;20015;-72
2023/02/19 00:31:26;;;;;;;6.07;5.68;;;;;;;9.43;100.00;101327.00;6079700;23;20018;-74
2023/02/19 00:33:57;;;;;;;5.32;5.03;;;;;;;8.65;100.00;101178.88;6076440;23;20436;-74
2023/02/19 00:36:25;;;;;;;5.47;5.18;;;;;;;9.64;100.00;101353.31;6103264;23;20529;-75
2023/02/19 00:38:52;;;;;;;5.82;5.43;;;;;;;9.25;100.00;101262.22;6050781;23;20715;-73
2023/02/19 00:41:21;;;;;;;6.00;5.25;;;;;;;9.66;100.00;101357.59;6080834;23;20021;-74
2023/02/19 00:43:48;;;;;;;5.18;4.82;;;;;;;9.51;100.00;101314.47;6104638;23;20040;-73
2023/02/19 00:46:17;;;;;;;6.00;5.60;;;;;;;9.53;100.00;101320.50;6056216;23;20030;-74
2023/02/19 00:48:43;;;;;;;5.80;5.40;;;;;;;9.18;100.00;101246.72;6097579;23;20032;-73
2023/02/19 00:51:10;;;;;;;5.53;5.13;;;;;;;9.34;100.00;101286.28;6086603;23;20033;-72
2023/02/19 00:53:37;;;;;;;6.07;5.70;;;;;;;9.50;100.00;101285.69;6080368;23;20080;-72
2023/02/19 00:56:05;;;;;;;5.68;5.22;;;;;;;9.43;100.00;101295.56;6076395;23;22179;-74
2023/02/19 00:58:32;;;;;;;6.18;5.78;;;;;;;9.43;100.00;101313.91;6076989;23;20091;-73
2023/02/19 01:00:59;;;;;;;7.18;6.00;;;;;;;9.14;100.00;101239.91;6102743;23;20110;-74
2023/02/19 01:03:26;;;;;;;16.33;15.23;;;;;;;9.57;100.00;101314.22;6018881;23;20028;-69
2023/02/19 01:05:53;;;;;;;6.50;5.70;;;;;;;9.41;100.00;101278.19;6034153;23;20027;-72
2023/02/19 01:08:20;;;;;;;5.97;5.45;;;;;;;9.71;100.00;101344.31;6054595;23;20025;-71
2023/02/19 01:10:46;;;;;;;5.55;5.20;;;;;;;9.25;100.00;101260.44;6079033;23;20017;-71
2023/02/19 01:13:13;;;;;;;6.22;5.72;;;;;;;9.66;100.00;101304.31;6097452;23;20017;-72
2023/02/19 01:15:40;;;;;;;5.80;5.40;;;;;;;9.79;100.00;101326.50;6079304;23;20026;-74
2023/02/19 01:18:06;;;;;;;5.38;5.07;;;;;;;9.42;100.00;101278.16;6084696;23;20017;-73
2023/02/19 01:20:33;;;;;;;5.25;4.85;;;;;;;8.41;100.00;101099.53;6056717;23;20026;-71
2023/02/19 01:22:59;;;;;;;5.10;4.80;;;;;;;9.78;100.00;101311.69;6081949;23;20085;-71
2023/02/19 01:25:25;;;;;;;5.90;5.50;;;;;;;9.78;100.00;101335.28;6081966;23;20017;-70
2023/02/19 01:27:52;;;;;;;6.25;5.75;;;;;;;9.33;100.00;101263.63;6099275;23;20131;-72
2023/02/19 01:30:19;;;;;;;5.43;5.13;;;;;;;9.20;100.00;101225.72;6082268;23;20093;-73
2023/02/19 01:32:45;;;;;;;5.88;5.25;;;;;;;9.63;100.00;101307.06;6078700;23;20038;-72
2023/02/19 01:35:12;;;;;;;5.57;5.15;;;;;;;9.38;100.00;101319.31;6081832;23;20090;-74
2023/02/19 01:37:38;;;;;;;6.93;5.05;;;;;;;8.99;100.00;101206.44;6080166;23;20025;-71
2023/02/19 01:40:06;;;;;;;6.13;5.63;;;;;;;9.78;100.00;101349.25;6081099;23;20079;-72
2023/02/19 01:42:32;;;;;;;5.40;5.05;;;;;;;8.28;100.00;101091.28;6098635;23;20087;-73
2023/02/19 01:45:20;;;;;;;12.70;5.38;;;;;;;9.81;100.00;101337.78;6049390;23;20021;-72
2023/02/19 01:47:53;;;;;;;6.82;6.22;;;;;;;9.56;100.00;101306.41;6077947;23;20033;-72
2023/02/19 01:50:19;;;;;;;5.43;4.97;;;;;;;9.80;100.00;101336.06;6099280;23;20029;-72
2023/02/19 01:52:46;;;;;;;7.05;6.38;;;;;;;9.22;100.00;101238.75;6079683;23;20655;-72
2023/02/19 01:55:13;;;;;;;7.65;5.38;;;;;;;9.44;100.00;101292.03;6102213;23;20038;-72
2023/02/19 01:57:45;;;;;;;5.45;4.85;;;;;;;9.82;100.00;101336.88;6082243;23;20044;-72
2023/02/19 02:00:14;;;;;;;5.40;4.90;;;;;;;9.82;100.00;101333.41;6055838;23;20500;-73
2023/02/19 02:02:44;;;;;;;7.15;5.88;;;;;;;9.81;100.00;101343.03;6081588;23;20101;-71
2023/02/19 02:05:21;;;;;;;5.63;5.22;;;;;;;9.65;100.00;101307.84;6082608;23;20030;-71
2023/02/19 02:10:33;;;;;;;6.43;5.45;;;;;;;9.63;100.00;101322.78;6079344;23;20017;-73
2023/02/19 02:13:00;;;;;;;6.45;5.95;;;;;;;9.09;100.00;101213.03;6095563;23;20083;-72
2023/02/19 02:15:35;;;;;;;5.50;5.10;;;;;;;9.76;100.00;101345.84;6079822;23;20056;-73
2023/02/19 02:18:09;;;;;;;6.80;6.25;;;;;;;9.46;100.00;101295.47;6080274;23;20045;-74
2023/02/19 02:20:41;;;;;;;5.55;5.15;;;;;;;9.82;100.00;101342.09;6078906;23;20028;-72
2023/02/19 02:23:08;;;;;;;8.05;5.20;;;;;;;9.78;100.00;101332.66;6077311;23;20036;-72
2023/02/19 02:25:57;;;;;;;6.55;5.47;;;;;;;9.78;100.00;101344.03;6055119;23;20248;-74
2023/02/19 02:28:39;;;;;;;6.45;5.95;;;;;;;9.75;100.00;101345.91;6101405;23;20027;-73
2023/02/19 02:31:13;;;;;;;5.85;5.45;;;;;;;9.74;100.00;101346.78;6077342;23;20524;-74
2023/02/19 02:33:52;;;;;;;6.88;6.28;;;;;;;9.07;100.00;101237.56;6080066;23;20025;-73
2023/02/19 02:36:25;;;;;;;5.85;5.40;;;;;;;9.70;100.00;101342.59;6077709;23;20055;-73
2023/02/19 02:38:53;;;;;;;6.35;5.85;;;;;;;9.59;100.00;101349.09;6073293;23;20026;-72
2023/02/19 02:41:20;;;;;;;7.05;6.55;;;;;;;9.61;100.00;101353.44;6099484;23;20369;-72
2023/02/19 02:43:46;;;;;;;6.13;5.57;;;;;;;8.97;100.00;101237.03;6078472;23;20100;-72
2023/02/19 02:46:19;;;;;;;5.93;5.53;;;;;;;9.57;100.00;101357.94;6077976;23;20044;-75
2023/02/19 02:48:52;;;;;;;7.45;5.82;;;;;;;9.56;100.00;101351.84;6072519;23;20091;-70
2023/02/19 02:51:26;;;;;;;5.57;5.25;;;;;;;8.95;100.00;101250.19;6095283;23;20592;-71
2023/02/19 02:56:49;;;;;;;5.63;5.15;;;;;;;9.14;100.00;101276.56;6095735;23;20037;-71
2023/02/19 02:59:20;;;;;;;6.03;5.63;;;;;;;9.59;100.00;101354.31;6050129;23;20105;-71
2023/02/19 03:02:11;;;;;;;8.63;6.57;;;;;;;9.54;100.00;101364.16;6050300;23;20022;-71
2023/02/19 03:07:59;;;;;;;6.07;5.57;;;;;;;9.55;100.00;101363.22;6075521;23;20037;-72
2023/02/19 03:10:44;;;;;;;6.50;5.90;;;;;;;8.33;100.00;101172.16;6076658;23;20030;-72
2023/02/19 03:19:20;;;;;;;9.15;6.30;;;;;;;9.53;100.00;101375.53;6101381;23;20056;-73
2023/02/19 03:21:52;;;;;;;6.40;5.80;;;;;;;8.81;100.00;101262.06;6052119;23;20034;-74
2023/02/19 03:27:10;;;;;;;7.80;6.57;;;;;;;9.18;100.00;101327.03;6080662;23;20033;-75
2023/02/19 03:29:40;;;;;;;6.63;6.05;;;;;;;9.55;100.00;101378.09;6056239;23;20593;-72
2023/02/19 03:32:17;;;;;;;6.25;5.47;;;;;;;9.34;100.00;101364.00;6081768;23;20025;-74
2023/02/19 03:34:50;;;;;;;6.55;5.95;;;;;;;9.33;100.00;101360.53;6077778;23;20026;-72
2023/02/19 03:37:35;;;;;;;7.68;5.97;;;;;;;8.04;100.00;101147.88;6099369;23;20025;-72
2023/02/19 03:40:03;;;;;;;6.22;5.75;;;;;;;8.89;100.00;101294.06;6046857;23;20965;-74
2023/02/19 03:43:00;;;;;;;7.35;6.53;;;;;;;9.47;100.00;101396.72;6082656;23;20060;-73
2023/02/19 03:45:50;;;;;;;9.93;6.63;;;;;;;8.99;100.00;101306.75;6105965;23;20252;-73
2023/02/19 03:48:37;;;;;;;7.82;6.65;;;;;;;9.51;100.00;101400.09;6088202;23;20084;-70
2023/02/19 03:51:39;;;;;;;7.00;6.45;;;;;;;9.48;100.00;101408.03;6079992;23;20038;-72
2023/02/19 03:54:17;;;;;;;7.75;7.00;;;;;;;9.45;100.00;101409.00;6075642;23;20017;-72
2023/02/19 03:56:52;;;;;;;7.15;5.90;;;;;;;9.47;100.00;101412.44;6100797;23;20696;-73
2023/02/19 03:59:37;;;;;;;7.72;7.00;;;;;;;9.28;100.00;101400.88;6079930;23;20092;-71
2023/02/19 04:02:13;;;;;;;12.23;6.20;;;;;;;8.90;100.00;101306.22;6050792;23;20034;-72
2023/02/19 04:04:46;;;;;;;10.15;5.85;;;;;;;8.77;100.00;101290.97;6080308;23;20024;-74
2023/02/19 04:07:12;;;;;;;;;;;;;;;9.47;100.00;101422.91;6101975;23;20037;-71
2023/02/19 04:09:44;;;;;;;6.25;5.75;;;;;;;8.94;100.00;101331.38;6058125;23;19926;-71
2023/02/19 04:12:13;;;;;;;7.35;6.40;;;;;;;9.36;100.00;101414.56;6071700;18;20026;-71
2023/02/19 04:14:59;;;;;;;7.75;6.35;;;;;;;9.31;100.00;101427.00;6059791;23;20041;-71
2023/02/19 04:17:32;;;;;;;7.35;6.75;;;;;;;8.94;100.00;101376.75;6068380;23;20350;-72
2023/02/19 04:20:05;;;;;;;11.10;6.25;;;;;;;9.26;100.00;101428.91;6105612;23;20036;-72
2023/02/19 04:22:32;;;;;;;7.00;6.32;;;;;;;9.14;100.00;101415.34;6123252;23;20167;-72
2023/02/19 04:24:59;;;;;;;13.85;6.90;;;;;;;8.75;100.00;101381.75;6068258;23;20095;-74
2023/02/19 04:27:26;;;;;;;7.90;6.55;;;;;;;8.83;100.00;101394.59;6100501;23;20080;-72
2023/02/19 04:29:52;;;;;;;7.60;6.63;;;;;;;8.97;100.00;101438.63;6079230;23;20101;-74
2023/02/19 04:32:19;;;;;;;11.23;7.13;;;;;;;8.27;100.00;101309.19;6122997;23;20017;-73
2023/02/19 04:34:45;;;;;;;6.47;5.95;;;;;;;8.94;100.00;101434.34;6068493;23;20080;-73
2023/02/19 04:37:12;;;;;;;6.80;6.20;;;;;;;9.12;100.00;101458.19;6103444;23;20040;-72
2023/02/19 04:39:38;;;;;;;9.45;7.53;;;;;;;8.73;100.00;101393.19;6091048;23;20022;-74
2023/02/19 04:42:05;;;;;;;5.60;5.25;;;;;;;8.60;100.00;101369.19;6112569;23;20025;-73
2023/02/19 04:44:34;;;;;;;6.55;5.97;;;;;;;9.12;100.00;101469.53;6090992;23;20037;-72
2023/02/19 04:47:00;;;;;;;8.02;6.57;;;;;;;8.60;100.00;101387.50;6099341;23;20054;-72
2023/02/19 04:49:27;;;;;;;5.53;5.22;;;;;;;9.05;100.00;101467.16;6122872;23;20021;-72
2023/02/19 04:51:53;;;;;;;6.20;5.65;;;;;;;8.54;100.00;101387.72;6117331;23;20037;-72
2023/02/19 04:54:20;;;;;;;6.68;6.03;;;;;;;9.02;100.00;101470.75;6125240;23;20064;-72
2023/02/19 04:56:46;;;;;;;6.68;6.18;;;;;;;9.05;100.00;101469.78;6089808;23;20025;-74
2023/02/19 04:59:12;;;;;;;9.00;6.75;;;;;;;8.56;100.00;101391.13;6124452;23;20013;-72
2023/02/19 05:01:39;;;;;;;7.40;5.97;;;;;;;8.80;100.00;101454.91;6126023;23;20997;-72
2023/02/19 05:04:05;;;;;;;6.93;6.32;;;;;;;8.26;100.00;101356.31;6080981;23;20531;-73
2023/02/19 05:06:32;;;;;;;6.70;6.20;;;;;;;8.02;100.00;101316.09;6134501;23;20036;-72
2023/02/19 05:08:58;;;;;;;8.40;7.38;;;;;;;8.28;100.00;101364.94;6123327;23;20017;-72
2023/02/19 05:11:24;;;;;;;5.88;5.47;;;;;;;8.69;100.00;101441.28;6122357;23;20091;-72
2023/02/19 05:13:51;;;;;;;9.20;7.40;;;;;;;8.90;100.00;101489.47;6072966;23;20100;-72
2023/02/19 05:16:17;;;;;;;7.50;6.55;;;;;;;8.63;100.00;101431.88;6095654;23;20020;-73
2023/02/19 05:18:45;;;;;;;10.73;8.07;;;;;;;8.78;100.00;101469.78;6090252;23;20022;-72
2023/02/19 05:21:12;;;;;;;7.30;6.53;;;;;;;8.71;100.00;101453.41;6118338;23;20090;-72
2023/02/19 05:23:39;;;;;;;9.05;7.30;;;;;;;8.37;100.00;101428.28;6095171;23;20025;-72
2023/02/19 05:26:18;;;;;;;7.72;6.93;;;;;;;8.79;100.00;101472.34;6118372;23;20029;-73
2023/02/19 05:28:46;;;;;;;8.43;7.63;;;;;;;8.93;100.00;101502.47;6091120;23;20033;-74
2023/02/19 05:31:13;;;;;;;8.20;7.22;;;;;;;8.19;100.00;101382.66;6121611;23;20025;-72
2023/02/19 05:33:41;;;;;;;7.03;6.43;;;;;;;8.94;100.00;101523.34;6095113;23;20041;-73
2023/02/19 05:36:11;;;;;;;8.23;7.43;;;;;;;8.30;100.00;101415.44;6097098;23;20217;-73
2023/02/19 05:38:39;;;;;;;9.15;8.30;;;;;;;7.98;100.00;101355.44;6068682;23;20096;-73
2023/02/19 05:41:12;;;;;;;6.47;6.03;;;;;;;8.90;100.00;101521.75;6122615;23;20029;-73
2023/02/19 05:43:39;;;;;;;10.20;8.18;;;;;;;8.50;100.00;101438.41;6074469;23;20080;-72
2023/02/19 05:46:07;;;;;;;8.05;7.28;;;;;;;8.69;100.00;101499.72;6103232;23;20779;-74
2023/02/19 05:48:34;;;;;;;9.60;6.65;;;;;;;8.25;100.00;101422.59;6063866;23;20112;-72
2023/02/19 05:51:06;;;;;;;10.23;7.82;;;;;;;8.38;100.00;101455.31;6123117;23;20200;-72
2023/02/19 05:53:33;;;;;;;8.20;7.35;;;;;;;7.46;100.00;101307.34;6088729;23;20103;-72
2023/02/19 05:55:59;;;;;;;15.10;7.68;;;;;;;8.59;100.00;101506.13;6122079;23;20938;-73
2023/02/19 05:58:27;;;;;;;7.65;6.95;;;;;;;8.76;100.00;101540.50;6101902;23;20049;-73
2023/02/19 06:00:53;;;;;;;13.80;6.88;;;;;;;8.56;100.00;101507.09;6120913;23;20024;-71
2023/02/19 06:03:21;;;;;;;11.15;9.30;;;;;;;8.73;100.00;101543.19;6093985;23;20034;-73
2023/02/19 06:05:47;;;;;;;7.30;6.60;;;;;;;7.93;100.00;101414.81;6102677;23;21833;-72
2023/02/19 06:08:14;;;;;;;8.50;7.70;;;;;;;8.81;100.00;101542.97;6085952;23;20024;-73
2023/02/19 06:10:42;;;;;;;14.18;6.45;;;;;;;8.62;100.00;101529.59;6089803;23;20037;-73
2023/02/19 06:13:09;;;;;;;8.55;7.63;;;;;;;8.47;100.00;101490.81;6085999;23;20539;-71
2023/02/19 06:15:36;;;;;;;11.80;7.45;;;;;;;8.57;100.00;101518.41;6119011;23;20036;-74
2023/02/19 06:18:03;;;;;;;6.97;6.28;;;;;;;7.38;100.00;101322.41;6088358;23;20076;-73
2023/02/19 06:20:29;;;;;;;10.32;7.70;;;;;;;7.39;100.00;101326.72;6119492;23;20055;-71
2023/02/19 06:22:56;;;;;;;8.05;6.95;;;;;;;8.25;100.00;101488.81;6092288;23;20393;-70
2023/02/19 06:25:23;;;;;;;15.02;7.57;;;;;;;8.44;100.00;101511.84;6118572;23;20034;-71
2023/02/19 06:27:49;;;;;;;9.23;7.93;;;;;;;8.73;100.00;101553.66;6091396;23;20038;-73
2023/02/19 06:30:16;;;;;;;6.65;6.15;;;;;;;8.20;100.00;101472.44;6127758;18;20031;-71
2023/02/19 06:32:42;;;;;;;6.22;5.70;;;;;;;8.49;100.00;101526.50;6108904;23;20481;-72
2023/02/19 06:35:09;;;;;;;9.85;7.35;;;;;;;8.01;100.00;101456.41;6128271;23;20028;-72
2023/02/19 06:37:35;;;;;;;9.73;7.85;;;;;;;8.38;100.00;101518.09;6079592;23;20092;-71
2023/02/19 06:40:01;;;;;;;7.20;6.50;;;;;;;8.18;100.00;101469.00;6100796;23;20021;-72
2023/02/19 06:42:32;;;;;;;9.38;7.32;;;;;;;6.86;100.00;101282.09;6104134;23;20073;-72
2023/02/19 06:44:59;;;;;;;15.68;6.82;;;;;;;8.14;100.00;101525.75;6075424;23;20241;-72
2023/02/19 06:47:29;;;;;;;11.73;7.20;;;;;;;8.11;100.00;101498.81;6102138;23;20394;-72
2023/02/19 06:49:55;;;;;;;6.95;6.28;;;;;;;8.57;100.00;101595.13;6099831;23;20025;-71
2023/02/19 06:52:21;;;;;;;6.45;5.78;;;;;;;8.19;100.00;101557.84;6106240;23;20092;-71
2023/02/19 06:54:48;;;;;;;19.25;6.90;;;;;;;8.43;100.00;101581.59;6085281;23;20025;-71
2023/02/19 06:57:14;;;;;;;7.68;6.18;;;;;;;8.51;100.00;101594.47;6103508;23;20089;-70
2023/02/19 06:59:41;;;;;;;6.35;5.93;;;;;;;7.80;100.00;101478.81;6101871;23;20093;-70
2023/02/19 07:02:10;;;;;;;15.18;7.07;;;;;;;8.52;100.00;101615.34;6106292;23;20033;-70
2023/02/19 07:04:36;;;;;;;8.38;6.88;;;;;;;7.22;100.00;101391.59;6076125;23;20077;-71
2023/02/19 07:07:03;;;;;;;5.85;5.40;;;;;;;8.25;100.00;101561.19;6080209;23;20203;-71
2023/02/19 07:09:31;;;;;;;5.95;5.47;;;;;;;8.54;100.00;101618.78;6080624;23;20391;-70
2023/02/19 07:11:58;;;;;;;6.93;5.72;;;;;;;7.97;100.00;101534.06;6108069;23;20224;-71
2023/02/19 07:14:27;;;;;;;8.38;7.53;;;;;;;8.58;100.00;101636.13;6106440;23;20022;-71
2023/02/19 07:16:53;;;;;;;7.72;6.50;;;;;;;8.53;100.00;101603.13;6079020;23;20033;-70
2023/02/19 07:19:20;;;;;;;7.60;6.38;;;;;;;8.62;100.00;101639.50;6105038;23;20018;-70
2023/02/19 07:21:46;;;;;;;6.55;6.03;;;;;;;8.59;100.00;101642.19;6064282;23;20037;-71
2023/02/19 07:24:13;;;;;;;7.18;6.38;;;;;;;8.44;100.00;101606.00;6104184;23;20049;-70
2023/02/19 07:26:39;;;;;;;8.82;6.03;;;;;;;7.95;100.00;101535.00;6107300;23;20405;-70
2023/02/19 07:29:06;;;;;;;7.43;6.75;;;;;;;8.32;100.00;101605.44;6109633;23;20017;-70
2023/02/19 07:31:32;;;;;;;7.43;6.78;;;;;;;8.39;100.00;101646.19;6083146;23;20041;-70
2023/02/19 07:33:59;;;;;;;5.85;5.35;;;;;;;8.27;100.00;101635.22;6109335;23;20455;-70
2023/02/19 07:36:27;;;;;;;7.13;6.45;;;;;;;7.96;100.00;101586.41;6080788;23;20093;-70
2023/02/19 07:38:58;;;;;;;8.95;5.78;;;;;;;8.48;100.00;101675.63;6106974;23;20210;-70
2023/02/19 07:41:25;;;;;;;7.53;6.82;;;;;;;8.48;100.00;101681.75;6055559;23;20033;-70
2023/02/19 07:43:53;;;;;;;7.18;6.47;;;;;;;8.32;100.00;101662.13;6104781;23;20001;-71
2023/02/19 07:46:20;;;;;;;7.28;6.57;;;;;;;8.01;100.00;101615.00;6080163;23;20021;-70
2023/02/19 07:48:47;;;;;;;6.57;6.05;;;;;;;8.29;100.00;101654.34;6055115;23;20026;-71
2023/02/19 07:51:17;;;;;;;9.80;6.55;;;;;;;8.51;100.00;101689.50;6105971;23;20100;-70
2023/02/19 07:53:45;;;;;;;6.55;5.50;;;;;;;8.45;100.00;101676.59;6083268;23;20288;-70
2023/02/19 07:56:12;;;;;;;6.30;5.80;;;;;;;8.09;100.00;101634.81;6077022;23;20238;-70
2023/02/19 07:58:39;;;;;;;5.60;5.22;;;;;;;8.42;100.00;101691.50;6099631;23;20030;-70
2023/02/19 08:01:17;;;;;;;9.70;6.80;;;;;;;8.48;100.00;101704.41;6055723;23;20461;-70
2023/02/19 08:03:44;;;;;;;12.52;6.63;;;;;;;7.76;100.00;101602.59;6100840;23;20248;-70
2023/02/19 08:06:11;;;;;;;7.68;6.97;;;;;;;8.46;100.00;101725.41;6092751;23;20366;-70
2023/02/19 08:08:38;;;;;;;5.65;5.15;;;;;;;8.36;100.00;101708.22;6080500;23;20044;-70
2023/02/19 08:13:51;;;;;;;6.95;6.40;;;;;;;8.68;100.00;101730.03;6104529;23;20488;-70
2023/02/19 08:16:19;;;;;;;7.53;6.10;;;;;;;8.68;100.00;101730.03;6082571;23;20654;-70
2023/02/19 08:19:05;;;;;;;5.93;5.53;;;;;;;8.44;100.00;101680.13;6101368;23;20503;-70
2023/02/19 08:21:32;;;;;;;11.05;5.32;;;;;;;8.38;100.00;101660.19;6107226;23;20142;-70
2023/02/19 08:23:59;;;;;;;5.45;5.07;;;;;;;8.46;100.00;101674.81;6074370;23;20018;-70
2023/02/19 08:26:26;;;;;;;11.32;6.15;;;;;;;8.33;100.00;101654.22;6106721;23;20033;-71
2023/02/19 08:28:52;;;;;;;10.30;9.25;;;;;;;8.61;100.00;101716.28;6068593;23;20104;-71
2023/02/19 08:31:18;;;;;;;6.00;5.45;;;;;;;8.74;100.00;101738.59;6102378;23;20079;-69
2023/02/19 08:33:45;;;;;;;5.90;5.45;;;;;;;8.45;100.00;101684.44;6086697;23;20054;-70
2023/02/19 08:36:11;;;;;;;9.43;4.80;;;;;;;8.29;100.00;101649.97;6101744;23;20021;-70
2023/02/19 08:38:38;;;;;;;10.32;5.22;;;;;;;8.93;100.00;101740.69;6084607;23;20121;-75
2023/02/19 08:41:06;;;;;;;5.75;5.28;;;;;;;8.94;100.00;101747.63;6118307;23;20283;-70
2023/02/19 08:43:34;;;;;;;8.23;5.85;;;;;;;8.20;100.00;101639.78;6101974;23;20045;-70
2023/02/19 08:46:01;;;;;;;10.23;6.22;;;;;;;9.04;100.00;101740.38;6078149;23;20101;-70
2023/02/19 08:48:27;;;;;;;5.45;5.07;;;;;;;9.12;100.00;101738.38;6099635;23;20374;-70
2023/02/19 08:50:56;;;;;;;5.35;4.95;;;;;;;9.24;100.00;101748.53;6055284;23;20227;-70
2023/02/19 08:53:24;;;;;;;6.25;5.65;;;;;;;8.57;100.00;101650.06;6079313;23;20065;-71
2023/02/19 08:55:51;;;;;;;5.63;5.22;;;;;;;9.33;100.00;101744.75;6106729;23;20291;-71
2023/02/19 08:58:18;;;;;;;6.47;5.75;;;;;;;9.33;100.00;101755.22;6069756;23;20629;-71
2023/02/19 09:00:44;;;;;;;4.80;4.55;;;;;;;9.21;100.00;101721.56;6103262;23;20030;-71
2023/02/19 09:03:10;;;;;;;6.50;5.97;;;;;;;9.27;100.00;101737.09;6087356;23;20022;-72
2023/02/19 09:05:38;;;;;;;7.22;5.85;;;;;;;9.12;100.00;101709.56;6079467;23;20037;-71
2023/02/19 09:08:05;;;;;;;5.90;5.32;;;;;;;9.34;100.00;101736.84;6092583;23;20058;-71
2023/02/19 09:10:31;;;;;;;8.40;5.03;;;;;;;9.33;100.00;101689.75;6104359;23;20468;-70
2023/02/19 09:12:57;;;;;;;12.70;5.57;;;;;;;9.79;100.00;101748.56;6075527;23;20560;-71
2023/02/19 09:15:24;;;;;;;9.65;6.38;;;;;;;9.03;100.00;101626.06;6108270;23;20107;-71
2023/02/19 09:17:51;;;;;;;6.18;5.72;;;;;;;9.81;100.00;101743.28;6077225;23;20010;-70
2023/02/19 09:20:18;;;;;;;5.80;5.38;;;;;;;9.72;100.00;101768.00;6096777;23;20123;-71
2023/02/19 09:22:45;;;;;;;11.23;6.20;;;;;;;9.53;100.00;101741.53;6105543;23;20417;-72
2023/02/19 09:25:11;;;;;;;5.57;5.18;;;;;;;9.52;100.00;101760.75;6098527;23;20034;-71
2023/02/19 09:27:38;;;;;;;11.90;5.25;;;;;;;8.21;100.00;101583.94;6106286;23;20025;-71
2023/02/19 09:30:05;;;;;;;12.82;4.75;;;;;;;8.64;100.00;101684.81;6074909;23;20247;-72
2023/02/19 09:32:32;;;;;;;7.40;5.13;;;;;;;9.42;100.00;101791.66;6101944;23;20022;-71
2023/02/19 09:34:58;;;;;;;5.53;5.13;;;;;;;9.33;100.00;101769.19;6103146;23;20398;-71
2023/02/19 09:37:26;;;;;;;5.90;5.18;;;;;;;9.46;100.00;101774.94;6105679;23;20041;-71
2023/02/19 09:39:53;;;;;;;5.30;4.75;;;;;;;9.42;100.00;101804.75;6103968;23;20080;-71
2023/02/19 09:42:23;;;;;;;5.45;5.00;;;;;;;8.77;100.00;101712.31;6054984;23;20089;-72
2023/02/19 09:44:53;;;;;;;8.55;4.80;;;;;;;8.58;100.00;101690.22;6102711;23;20025;-72
2023/02/19 09:47:22;;;;;;;5.78;5.38;;;;;;;9.35;100.00;101813.69;6104848;23;20022;-71
2023/02/19 09:49:58;;;;;;;5.07;4.78;;;;;;;9.38;100.00;101805.72;6075043;23;20028;-71
2023/02/19 09:52:34;;;;;;;5.40;5.10;;;;;;;9.41;100.00;101817.88;6087692;23;20406;-72
2023/02/19 09:55:08;;;;;;;7.72;5.47;;;;;;;9.29;100.00;101812.09;6071614;23;20104;-71
2023/02/19 09:57:35;;;;;;;5.32;5.03;;;;;;;8.90;100.00;101777.41;6103135;23;20006;-71
2023/02/19 10:00:11;;;;;;;4.63;4.32;;;;;;;9.18;100.00;101825.50;6077511;23;20087;-70
2023/02/19 10:02:37;;;;;;;4.63;4.32;;;;;;;8.99;100.00;101805.97;6101375;23;20079;-71
2023/02/19 10:05:13;;;;;;;5.25;4.95;;;;;;;8.99;100.00;101834.75;6085902;23;20151;-71
2023/02/19 10:07:46;;;;;;;6.30;5.35;;;;;;;8.86;100.00;101836.00;6102861;23;20036;-71
2023/02/19 10:10:13;;;;;;;5.95;5.13;;;;;;;9.18;100.00;101840.34;6075438;23;20484;-72
2023/02/19 10:12:46;;;;;;;5.30;4.88;;;;;;;9.15;100.00;101859.63;6078994;23;20091;-71
2023/02/19 10:15:37;;;;;;;7.38;5.80;;;;;;;5.79;100.00;101300.34;6049567;23;20020;-71
2023/02/19 10:18:05;;;;;;;8.88;5.22;;;;;;;9.33;100.00;101876.59;6102277;23;20417;-74
2023/02/19 10:20:36;;;;;;;4.97;4.68;;;;;;;8.94;100.00;101807.84;6102679;23;20343;-71
2023/02/19 10:23:05;;;;;;;7.72;5.40;;;;;;;9.23;100.00;101845.47;6074279;23;20032;-72
2023/02/19 10:25:33;;;;;;;5.28;4.88;;;;;;;9.26;100.00;101901.25;6100944;23;20187;-71
2023/02/19 10:28:01;;;;;;;5.00;4.68;;;;;;;9.03;100.00;101914.94;6054974;23;20018;-71
2023/02/19 10:30:33;;;;;;;6.97;5.03;;;;;;;9.03;100.00;101882.69;6102099;23;20782;-71
2023/02/19 10:33:12;;;;;;;10.25;5.07;;;;;;;9.23;100.00;101910.94;6104164;23;20044;-71
2023/02/19 10:35:57;;;;;;;5.07;4.78;;;;;;;9.58;100.00;101908.22;6083231;23;20017;-71
2023/02/19 10:38:30;;;;;;;5.75;5.35;;;;;;;9.61;100.00;101914.28;6077719;23;20028;-72
2023/02/19 10:41:04;;;;;;;6.50;5.18;;;;;;;9.64;100.00;101929.88;6072638;23;20168;-71
2023/02/19 10:43:35;;;;;;;5.90;5.60;;;;;;;9.63;100.00;101947.38;6100918;23;20558;-72
2023/02/19 10:46:06;;;;;;;6.32;5.50;;;;;;;9.73;100.00;101945.38;6047071;23;20198;-71
2023/02/19 10:48:43;;;;;;;5.40;4.90;;;;;;;9.69;100.00;101930.63;6103608;23;20041;-71
2023/02/19 10:51:12;;;;;;;5.57;5.25;;;;;;;9.00;100.00;101802.47;6080423;23;20180;-70
2023/02/19 10:53:47;;;;;;;5.78;5.38;;;;;;;9.86;100.00;101928.38;6101728;23;20021;-72
2023/02/19 10:56:25;;;;;;;6.78;5.75;;;;;;;9.83;100.00;101923.22;6103884;23;20056;-72
2023/02/19 10:58:52;;;;;;;5.32;5.03;;;;;;;9.98;100.00;101922.78;6101855;23;20027;-71
2023/02/19 11:01:21;;;;;;;7.57;6.57;;;;;;;9.56;100.00;101861.97;6084732;23;20038;-71
2023/02/19 11:03:50;;;;;;;6.18;5.57;;;;;;;9.84;100.00;101903.09;6083161;23;20018;-72
2023/02/19 11:06:20;;;;;;;5.68;5.28;;;;;;;10.17;100.00;101933.56;6088095;23;20034;-70
2023/02/19 11:08:59;;;;;;;11.23;5.43;;;;;;;9.94;100.00;101891.44;6101310;23;20358;-71
2023/02/19 11:11:28;;;;;;;6.32;5.82;;;;;;;9.84;100.00;101859.38;6101357;23;20036;-71
2023/02/19 11:13:59;;;;;;;5.63;5.22;;;;;;;10.09;100.00;101927.69;6078289;23;20315;-72
2023/02/19 11:16:48;;;;;;;6.40;5.80;;;;;;;10.36;100.00;101923.41;6101409;23;20022;-71
2023/02/19 11:19:33;;;;;;;5.55;5.25;;;;;;;10.31;100.00;101929.69;6104201;23;20020;-71
2023/02/19 11:22:00;;;;;;;6.10;5.22;;;;;;;10.35;100.00;101903.28;6107096;23;20385;-71
2023/02/19 11:24:35;;;;;;;6.00;5.40;;;;;;;10.14;100.00;101872.44;6074431;23;20101;-72
2023/02/19 11:27:05;;;;;;;5.32;5.03;;;;;;;10.47;100.00;101911.69;6080886;23;20029;-71
2023/02/19 11:29:35;;;;;;;5.40;5.10;;;;;;;9.65;100.00;101790.94;6074035;23;20693;-71
2023/02/19 11:32:24;;;;;;;5.72;5.22;;;;;;;9.08;100.00;101727.16;6106849;23;20522;-71
2023/02/19 11:35:12;;;;;;;6.63;5.35;;;;;;;10.32;100.00;101913.91;6073856;23;20022;-71
2023/02/19 11:37:53;;;;;;;9.68;5.95;;;;;;;10.28;100.00;101906.13;6105380;23;20432;-71
2023/02/19 11:40:28;;;;;;;5.65;5.18;;;;;;;10.24;100.00;101913.22;6064965;23;20100;-72
2023/02/19 11:43:15;;;;;;;7.00;5.18;;;;;;;10.46;100.00;101900.31;6082068;23;20059;-71
2023/02/19 11:46:17;;;;;;;16.40;6.10;;;;;;;10.54;100.00;101894.81;6087062;23;20029;-71
2023/02/19 11:49:06;;;;;;;5.45;4.95;;;;;;;10.46;100.00;101860.09;6103745;23;20467;-71
2023/02/19 11:51:44;;;;;;;5.93;5.45;;;;;;;10.87;100.00;101884.13;6110798;23;20170;-71
2023/02/19 11:54:49;;;;;;;11.45;6.10;;;;;;;10.83;100.00;101879.88;6103545;23;20067;-70
2023/02/19 11:57:36;;;;;;;5.97;5.47;;;;;;;10.81;100.00;101893.06;6086538;23;20018;-70
2023/02/19 12:00:29;;;;;;;11.48;6.28;;;;;;;10.96;100.00;101887.28;6104177;23;20021;-70